CheckWX is a tool to help pilots better visualize weather data.  It is not intended as a substitute for an official pre-flight weather briefing.

05:11:20 UTC

CYYD METAR
Smithers Airport
Smithers, Canada
Current

11 mins ago

CYYD 240500Z AUTO 32002KT 9SM CLR M15/M18 A3037 RMK SLP324
Observed
Feb-24 @ 05:00 UTC
Wind
  • 320° at 2 KTS
Visibility
9 SM
Flight Rules
VFR
Cloud Levels
  • Clear skies
Temperature
-15°C / 5°F
Dewpoint
-18°C / -0°F
Humidity
78%
Altimeter
30.37" Hg
Pressure
1032.4 hPa
Previous

1 hour ago

CYYD 240400Z 11002KT 15SM SCT065 M12/M16 A3035 RMK SC4 LAST STFD OBS/NEXT 241500Z SLP317
Observed
Feb-24 @ 04:00 UTC
Wind
  • 110° at 2 KTS
Visibility
15 SM
Flight Rules
VFR
Cloud Levels
  • Scattered at 6,500' AGL
Temperature
-12°C / 10°F
Dewpoint
-16°C / 3°F
Humidity
72%
Altimeter
30.35" Hg
Pressure
1031.7 hPa
Previous

2 hours ago

CYYD 240300Z VRB02KT 25SM FEW070 M12/M18 A3035 RMK AC2 SLP315
Observed
Feb-24 @ 03:00 UTC
Wind
  • Variable at 2 KTS
Visibility
25 SM
Flight Rules
VFR
Cloud Levels
  • Few at 7,000' AGL
Temperature
-12°C / 10°F
Dewpoint
-18°C / -0°F
Humidity
61%
Altimeter
30.35" Hg
Pressure
1031.5 hPa